sensor_id;sensor_type;location;lat;lon;timestamp;temperature;humidity
54614;DHT22;40514;52.758;6.360;2022-08-19T00:34:55;18.00;99.90
54614;DHT22;40514;52.758;6.360;2022-08-19T00:37:23;17.90;99.90
54614;DHT22;40514;52.758;6.360;2022-08-19T00:39:50;17.90;99.90
54614;DHT22;40514;52.758;6.360;2022-08-19T00:42:18;17.90;99.90
54614;DHT22;40514;52.758;6.360;2022-08-19T00:44:43;17.80;99.90
54614;DHT22;40514;52.758;6.360;2022-08-19T00:47:09;17.80;99.90
54614;DHT22;40514;52.758;6.360;2022-08-19T00:49:41;17.80;99.90
54614;DHT22;40514;52.758;6.360;2022-08-19T00:52:13;17.80;99.90
54614;DHT22;40514;52.758;6.360;2022-08-19T00:54:40;17.80;99.90
54614;DHT22;40514;52.758;6.360;2022-08-19T00:57:12;17.70;99.90
54614;DHT22;40514;52.758;6.360;2022-08-19T00:59:41;17.80;99.90
54614;DHT22;40514;52.758;6.360;2022-08-19T01:02:07;17.80;99.90
54614;DHT22;40514;52.758;6.360;2022-08-19T01:04:33;17.80;99.90
54614;DHT22;40514;52.758;6.360;2022-08-19T01:06:59;17.80;99.90
54614;DHT22;40514;52.758;6.360;2022-08-19T01:09:25;17.80;99.90
54614;DHT22;40514;52.758;6.360;2022-08-19T01:11:51;17.80;99.90
54614;DHT22;40514;52.758;6.360;2022-08-19T01:17:39;17.70;99.90
54614;DHT22;40514;52.758;6.360;2022-08-19T01:20:07;17.70;99.90
54614;DHT22;40514;52.758;6.360;2022-08-19T01:22:48;17.70;99.90
54614;DHT22;40514;52.758;6.360;2022-08-19T01:25:16;17.70;99.90
54614;DHT22;40514;52.758;6.360;2022-08-19T01:27:46;17.50;99.90
54614;DHT22;40514;52.758;6.360;2022-08-19T01:30:29;17.50;99.90
54614;DHT22;40514;52.758;6.360;2022-08-19T01:32:56;17.50;99.90
54614;DHT22;40514;52.758;6.360;2022-08-19T01:35:24;17.50;99.90
54614;DHT22;40514;52.758;6.360;2022-08-19T01:37:53;17.50;99.90
54614;DHT22;40514;52.758;6.360;2022-08-19T01:40:22;17.50;99.90
54614;DHT22;40514;52.758;6.360;2022-08-19T01:42:49;17.50;99.90
54614;DHT22;40514;52.758;6.360;2022-08-19T01:45:16;17.50;99.90
54614;DHT22;40514;52.758;6.360;2022-08-19T01:47:41;17.50;99.90
54614;DHT22;40514;52.758;6.360;2022-08-19T01:50:10;17.40;99.90
54614;DHT22;40514;52.758;6.360;2022-08-19T01:52:37;17.40;99.90
54614;DHT22;40514;52.758;6.360;2022-08-19T01:55:06;17.40;99.90
54614;DHT22;40514;52.758;6.360;2022-08-19T01:57:32;17.50;99.90
54614;DHT22;40514;52.758;6.360;2022-08-19T01:59:57;17.40;99.90
54614;DHT22;40514;52.758;6.360;2022-08-19T02:02:24;17.30;99.90
54614;DHT22;40514;52.758;6.360;2022-08-19T02:04:50;17.40;99.90
54614;DHT22;40514;52.758;6.360;2022-08-19T02:07:19;17.30;99.90
54614;DHT22;40514;52.758;6.360;2022-08-19T02:09:46;17.20;99.90
54614;DHT22;40514;52.758;6.360;2022-08-19T02:12:12;17.20;99.90
54614;DHT22;40514;52.758;6.360;2022-08-19T02:14:38;17.10;99.90
54614;DHT22;40514;52.758;6.360;2022-08-19T02:17:03;17.10;99.90
54614;DHT22;40514;52.758;6.360;2022-08-19T02:19:29;17.10;99.90
54614;DHT22;40514;52.758;6.360;2022-08-19T02:21:57;17.10;99.90
54614;DHT22;40514;52.758;6.360;2022-08-19T02:24:22;17.10;99.90
54614;DHT22;40514;52.758;6.360;2022-08-19T02:26:48;17.10;99.90
54614;DHT22;40514;52.758;6.360;2022-08-19T02:29:13;17.10;99.90
54614;DHT22;40514;52.758;6.360;2022-08-19T02:31:39;17.00;99.90
54614;DHT22;40514;52.758;6.360;2022-08-19T02:34:04;17.00;99.90
54614;DHT22;40514;52.758;6.360;2022-08-19T02:36:30;17.00;99.90
54614;DHT22;40514;52.758;6.360;2022-08-19T02:38:55;16.90;99.90
54614;DHT22;40514;52.758;6.360;2022-08-19T02:41:26;16.90;99.90
54614;DHT22;40514;52.758;6.360;2022-08-19T02:43:53;16.80;99.90
54614;DHT22;40514;52.758;6.360;2022-08-19T02:46:23;16.80;99.90
54614;DHT22;40514;52.758;6.360;2022-08-19T02:48:53;16.60;99.90
54614;DHT22;40514;52.758;6.360;2022-08-19T02:51:23;16.60;99.90
54614;DHT22;40514;52.758;6.360;2022-08-19T02:53:49;16.50;99.90
54614;DHT22;40514;52.758;6.360;2022-08-19T02:56:14;16.50;99.90
54614;DHT22;40514;52.758;6.360;2022-08-19T02:58:41;16.50;99.90
54614;DHT22;40514;52.758;6.360;2022-08-19T03:01:07;16.50;99.90
54614;DHT22;40514;52.758;6.360;2022-08-19T03:03:33;16.50;99.90
54614;DHT22;40514;52.758;6.360;2022-08-19T03:06:06;16.50;99.90
54614;DHT22;40514;52.758;6.360;2022-08-19T03:08:33;16.60;99.90
54614;DHT22;40514;52.758;6.360;2022-08-19T03:10:58;16.60;99.90
54614;DHT22;40514;52.758;6.360;2022-08-19T03:13:24;16.50;99.90
54614;DHT22;40514;52.758;6.360;2022-08-19T03:15:50;16.50;99.90
54614;DHT22;40514;52.758;6.360;2022-08-19T03:18:16;16.50;99.90
54614;DHT22;40514;52.758;6.360;2022-08-19T03:20:47;16.40;99.90
54614;DHT22;40514;52.758;6.360;2022-08-19T03:23:14;16.40;99.90
54614;DHT22;40514;52.758;6.360;2022-08-19T03:25:42;16.40;99.90
54614;DHT22;40514;52.758;6.360;2022-08-19T03:28:10;16.40;99.90
54614;DHT22;40514;52.758;6.360;2022-08-19T03:30:37;16.40;99.90
54614;DHT22;40514;52.758;6.360;2022-08-19T03:33:05;16.40;99.90
54614;DHT22;40514;52.758;6.360;2022-08-19T03:35:30;16.40;99.90
54614;DHT22;40514;52.758;6.360;2022-08-19T03:37:57;16.40;99.90
54614;DHT22;40514;52.758;6.360;2022-08-19T03:40:23;16.40;99.90
54614;DHT22;40514;52.758;6.360;2022-08-19T03:42:48;16.40;99.90
54614;DHT22;40514;52.758;6.360;2022-08-19T03:45:15;16.40;99.90
54614;DHT22;40514;52.758;6.360;2022-08-19T03:47:40;16.40;99.90
54614;DHT22;40514;52.758;6.360;2022-08-19T03:50:06;16.30;99.90
54614;DHT22;40514;52.758;6.360;2022-08-19T03:52:33;16.30;99.90
54614;DHT22;40514;52.758;6.360;2022-08-19T03:54:59;16.50;99.90
54614;DHT22;40514;52.758;6.360;2022-08-19T03:57:25;16.30;99.90
54614;DHT22;40514;52.758;6.360;2022-08-19T03:59:50;16.20;99.90
54614;DHT22;40514;52.758;6.360;2022-08-19T04:02:16;16.20;99.90
54614;DHT22;40514;52.758;6.360;2022-08-19T04:04:43;16.20;99.90
54614;DHT22;40514;52.758;6.360;2022-08-19T04:07:11;16.10;99.90
54614;DHT22;40514;52.758;6.360;2022-08-19T04:09:36;16.10;99.90
54614;DHT22;40514;52.758;6.360;2022-08-19T04:12:03;16.00;99.90
54614;DHT22;40514;52.758;6.360;2022-08-19T04:14:31;16.00;99.90
54614;DHT22;40514;52.758;6.360;2022-08-19T04:16:58;16.00;99.90
54614;DHT22;40514;52.758;6.360;2022-08-19T04:19:25;15.90;99.90
54614;DHT22;40514;52.758;6.360;2022-08-19T04:21:52;15.90;99.90
54614;DHT22;40514;52.758;6.360;2022-08-19T04:24:19;15.90;99.90
54614;DHT22;40514;52.758;6.360;2022-08-19T04:26:46;15.80;99.90
54614;DHT22;40514;52.758;6.360;2022-08-19T04:29:15;15.80;99.90
54614;DHT22;40514;52.758;6.360;2022-08-19T04:31:43;15.70;99.90
54614;DHT22;40514;52.758;6.360;2022-08-19T04:34:12;15.60;99.90
54614;DHT22;40514;52.758;6.360;2022-08-19T04:36:40;15.60;99.90
54614;DHT22;40514;52.758;6.360;2022-08-19T04:39:09;15.50;99.90
54614;DHT22;40514;52.758;6.360;2022-08-19T04:41:35;15.60;99.90
54614;DHT22;40514;52.758;6.360;2022-08-19T04:44:19;15.60;99.90
54614;DHT22;40514;52.758;6.360;2022-08-19T04:46:47;15.60;99.90
54614;DHT22;40514;52.758;6.360;2022-08-19T04:49:14;15.50;99.90
54614;DHT22;40514;52.758;6.360;2022-08-19T04:51:43;15.50;99.90
54614;DHT22;40514;52.758;6.360;2022-08-19T04:54:09;15.50;99.90
54614;DHT22;40514;52.758;6.360;2022-08-19T04:56:35;15.50;99.90
54614;DHT22;40514;52.758;6.360;2022-08-19T04:59:01;15.60;99.90
54614;DHT22;40514;52.758;6.360;2022-08-19T05:01:31;15.70;99.90
54614;DHT22;40514;52.758;6.360;2022-08-19T05:04:01;15.60;99.90
54614;DHT22;40514;52.758;6.360;2022-08-19T05:06:29;15.60;99.90
54614;DHT22;40514;52.758;6.360;2022-08-19T05:08:58;15.70;99.90
54614;DHT22;40514;52.758;6.360;2022-08-19T05:11:27;15.70;99.90
54614;DHT22;40514;52.758;6.360;2022-08-19T05:13:53;15.70;99.90
54614;DHT22;40514;52.758;6.360;2022-08-19T05:16:20;15.80;99.90
54614;DHT22;40514;52.758;6.360;2022-08-19T05:18:47;15.80;99.90
54614;DHT22;40514;52.758;6.360;2022-08-19T05:21:32;15.80;99.90
54614;DHT22;40514;52.758;6.360;2022-08-19T05:24:17;15.80;99.90
54614;DHT22;40514;52.758;6.360;2022-08-19T05:26:43;15.90;99.90
54614;DHT22;40514;52.758;6.360;2022-08-19T05:29:12;15.90;99.90
54614;DHT22;40514;52.758;6.360;2022-08-19T05:31:38;15.90;99.90
54614;DHT22;40514;52.758;6.360;2022-08-19T05:34:05;16.10;99.90
54614;DHT22;40514;52.758;6.360;2022-08-19T05:36:39;16.10;99.90
54614;DHT22;40514;52.758;6.360;2022-08-19T05:39:07;16.30;99.90
54614;DHT22;40514;52.758;6.360;2022-08-19T05:41:33;16.40;99.90
54614;DHT22;40514;52.758;6.360;2022-08-19T05:44:02;16.50;99.90
54614;DHT22;40514;52.758;6.360;2022-08-19T05:46:28;16.60;99.90
54614;DHT22;40514;52.758;6.360;2022-08-19T05:48:55;16.70;99.90
54614;DHT22;40514;52.758;6.360;2022-08-19T05:51:22;16.80;99.90
54614;DHT22;40514;52.758;6.360;2022-08-19T05:53:48;16.80;99.90
54614;DHT22;40514;52.758;6.360;2022-08-19T05:56:15;16.80;99.90
54614;DHT22;40514;52.758;6.360;2022-08-19T05:58:41;16.80;99.90
54614;DHT22;40514;52.758;6.360;2022-08-19T06:01:16;16.90;99.90
54614;DHT22;40514;52.758;6.360;2022-08-19T06:03:43;17.00;99.90
54614;DHT22;40514;52.758;6.360;2022-08-19T06:06:09;17.00;99.90
54614;DHT22;40514;52.758;6.360;2022-08-19T06:08:37;17.10;99.90
54614;DHT22;40514;52.758;6.360;2022-08-19T06:13:39;17.30;99.90
54614;DHT22;40514;52.758;6.360;2022-08-19T06:16:05;17.40;99.90
54614;DHT22;40514;52.758;6.360;2022-08-19T06:18:30;17.50;99.90
54614;DHT22;40514;52.758;6.360;2022-08-19T06:20:56;17.50;99.90
54614;DHT22;40514;52.758;6.360;2022-08-19T06:23:22;17.60;99.90
54614;DHT22;40514;52.758;6.360;2022-08-19T06:25:47;17.70;99.90
54614;DHT22;40514;52.758;6.360;2022-08-19T06:28:13;17.80;99.90
54614;DHT22;40514;52.758;6.360;2022-08-19T06:30:38;17.90;99.90
54614;DHT22;40514;52.758;6.360;2022-08-19T06:33:04;18.00;99.90
54614;DHT22;40514;52.758;6.360;2022-08-19T06:35:29;18.10;99.90
54614;DHT22;40514;52.758;6.360;2022-08-19T06:37:55;18.20;99.90
54614;DHT22;40514;52.758;6.360;2022-08-19T06:40:21;18.30;99.90
54614;DHT22;40514;52.758;6.360;2022-08-19T06:42:47;18.40;99.90
54614;DHT22;40514;52.758;6.360;2022-08-19T06:45:12;18.60;99.90
54614;DHT22;40514;52.758;6.360;2022-08-19T06:47:38;18.70;99.90
54614;DHT22;40514;52.758;6.360;2022-08-19T06:50:04;18.80;99.90
54614;DHT22;40514;52.758;6.360;2022-08-19T06:52:31;18.80;99.90
54614;DHT22;40514;52.758;6.360;2022-08-19T06:54:58;19.00;99.90
54614;DHT22;40514;52.758;6.360;2022-08-19T06:57:25;19.00;99.90
54614;DHT22;40514;52.758;6.360;2022-08-19T06:59:51;19.20;99.90
54614;DHT22;40514;52.758;6.360;2022-08-19T07:02:17;19.30;99.90
54614;DHT22;40514;52.758;6.360;2022-08-19T07:04:42;19.40;99.90
54614;DHT22;40514;52.758;6.360;2022-08-19T07:07:11;19.50;99.90
54614;DHT22;40514;52.758;6.360;2022-08-19T07:09:39;19.50;99.90
54614;DHT22;40514;52.758;6.360;2022-08-19T07:12:07;19.70;99.90
54614;DHT22;40514;52.758;6.360;2022-08-19T07:14:33;19.80;99.90
54614;DHT22;40514;52.758;6.360;2022-08-19T07:17:05;19.80;99.90
54614;DHT22;40514;52.758;6.360;2022-08-19T07:19:31;20.00;99.90
54614;DHT22;40514;52.758;6.360;2022-08-19T07:21:57;20.20;99.90
54614;DHT22;40514;52.758;6.360;2022-08-19T07:24:26;20.10;99.90
54614;DHT22;40514;52.758;6.360;2022-08-19T07:26:54;20.20;99.90
54614;DHT22;40514;52.758;6.360;2022-08-19T07:29:21;20.30;99.90
54614;DHT22;40514;52.758;6.360;2022-08-19T07:31:49;20.40;99.90
54614;DHT22;40514;52.758;6.360;2022-08-19T07:34:15;20.60;99.90
54614;DHT22;40514;52.758;6.360;2022-08-19T07:36:41;20.70;99.90
54614;DHT22;40514;52.758;6.360;2022-08-19T07:39:14;20.80;99.90
54614;DHT22;40514;52.758;6.360;2022-08-19T07:41:40;20.90;99.90
54614;DHT22;40514;52.758;6.360;2022-08-19T07:44:07;21.00;99.90
54614;DHT22;40514;52.758;6.360;2022-08-19T07:46:35;21.10;99.90
54614;DHT22;40514;52.758;6.360;2022-08-19T07:49:01;21.20;99.90
54614;DHT22;40514;52.758;6.360;2022-08-19T07:51:28;21.30;99.90
54614;DHT22;40514;52.758;6.360;2022-08-19T07:53:54;21.40;99.90
54614;DHT22;40514;52.758;6.360;2022-08-19T07:56:20;21.50;99.90
54614;DHT22;40514;52.758;6.360;2022-08-19T07:58:48;21.60;99.90
54614;DHT22;40514;52.758;6.360;2022-08-19T08:01:23;21.80;99.90
54614;DHT22;40514;52.758;6.360;2022-08-19T08:03:50;21.90;99.90
54614;DHT22;40514;52.758;6.360;2022-08-19T08:06:35;22.00;99.90
54614;DHT22;40514;52.758;6.360;2022-08-19T08:09:25;22.10;99.90
54614;DHT22;40514;52.758;6.360;2022-08-19T08:11:55;22.30;99.90
54614;DHT22;40514;52.758;6.360;2022-08-19T08:14:28;22.40;99.90
54614;DHT22;40514;52.758;6.360;2022-08-19T08:16:55;22.60;99.90
54614;DHT22;40514;52.758;6.360;2022-08-19T08:19:23;22.70;99.90
54614;DHT22;40514;52.758;6.360;2022-08-19T08:21:51;22.80;99.90
54614;DHT22;40514;52.758;6.360;2022-08-19T08:24:17;22.90;99.90
54614;DHT22;40514;52.758;6.360;2022-08-19T08:26:43;23.10;99.90
54614;DHT22;40514;52.758;6.360;2022-08-19T08:29:12;23.20;99.90
54614;DHT22;40514;52.758;6.360;2022-08-19T08:31:42;23.40;99.90
54614;DHT22;40514;52.758;6.360;2022-08-19T08:34:09;23.50;99.90
54614;DHT22;40514;52.758;6.360;2022-08-19T08:36:40;23.60;99.90
54614;DHT22;40514;52.758;6.360;2022-08-19T08:39:17;23.80;99.90
54614;DHT22;40514;52.758;6.360;2022-08-19T08:44:21;24.10;99.90
54614;DHT22;40514;52.758;6.360;2022-08-19T08:46:50;24.20;99.90
54614;DHT22;40514;52.758;6.360;2022-08-19T08:49:45;24.40;99.90
54614;DHT22;40514;52.758;6.360;2022-08-19T08:52:26;24.60;99.90
54614;DHT22;40514;52.758;6.360;2022-08-19T08:54:55;24.80;99.90
54614;DHT22;40514;52.758;6.360;2022-08-19T08:57:36;25.00;99.90
54614;DHT22;40514;52.758;6.360;2022-08-19T09:00:07;25.30;99.90
54614;DHT22;40514;52.758;6.360;2022-08-19T09:02:33;25.50;99.90
54614;DHT22;40514;52.758;6.360;2022-08-19T09:04:58;25.70;99.90
54614;DHT22;40514;52.758;6.360;2022-08-19T09:07:45;26.10;99.90
54614;DHT22;40514;52.758;6.360;2022-08-19T09:10:25;26.30;99.90
54614;DHT22;40514;52.758;6.360;2022-08-19T09:12:57;26.50;99.90
54614;DHT22;40514;52.758;6.360;2022-08-19T09:15:40;26.70;99.90
54614;DHT22;40514;52.758;6.360;2022-08-19T09:18:05;27.00;99.90
54614;DHT22;40514;52.758;6.360;2022-08-19T09:20:33;27.30;99.90
54614;DHT22;40514;52.758;6.360;2022-08-19T09:22:59;27.60;99.90
54614;DHT22;40514;52.758;6.360;2022-08-19T09:25:25;28.00;99.80
54614;DHT22;40514;52.758;6.360;2022-08-19T09:27:52;28.50;98.90
54614;DHT22;40514;52.758;6.360;2022-08-19T09:30:24;28.90;97.80
54614;DHT22;40514;52.758;6.360;2022-08-19T09:32:51;29.50;96.30
54614;DHT22;40514;52.758;6.360;2022-08-19T09:35:25;30.00;94.40
54614;DHT22;40514;52.758;6.360;2022-08-19T09:37:51;30.50;92.10
54614;DHT22;40514;52.758;6.360;2022-08-19T09:40:18;30.90;92.10
54614;DHT22;40514;52.758;6.360;2022-08-19T09:42:44;31.20;90.40
54614;DHT22;40514;52.758;6.360;2022-08-19T09:45:12;31.50;89.70
54614;DHT22;40514;52.758;6.360;2022-08-19T09:47:38;32.00;88.80
54614;DHT22;40514;52.758;6.360;2022-08-19T09:50:09;32.40;85.80
54614;DHT22;40514;52.758;6.360;2022-08-19T09:52:36;32.70;81.50
54614;DHT22;40514;52.758;6.360;2022-08-19T09:55:07;33.00;80.70
54614;DHT22;40514;52.758;6.360;2022-08-19T09:57:33;32.90;77.30
54614;DHT22;40514;52.758;6.360;2022-08-19T09:59:59;33.00;78.60
54614;DHT22;40514;52.758;6.360;2022-08-19T10:02:25;32.60;77.30
54614;DHT22;40514;52.758;6.360;2022-08-19T10:04:51;32.60;77.00
54614;DHT22;40514;52.758;6.360;2022-08-19T10:07:35;32.90;76.90
54614;DHT22;40514;52.758;6.360;2022-08-19T10:10:01;33.30;75.40
54614;DHT22;40514;52.758;6.360;2022-08-19T10:12:26;33.60;73.80
54614;DHT22;40514;52.758;6.360;2022-08-19T10:14:52;33.90;72.10
54614;DHT22;40514;52.758;6.360;2022-08-19T10:17:19;34.20;70.70
54614;DHT22;40514;52.758;6.360;2022-08-19T10:19:45;34.50;69.30
54614;DHT22;40514;52.758;6.360;2022-08-19T10:22:11;34.60;67.40
54614;DHT22;40514;52.758;6.360;2022-08-19T10:24:38;34.90;66.10
54614;DHT22;40514;52.758;6.360;2022-08-19T10:27:04;35.10;65.50
54614;DHT22;40514;52.758;6.360;2022-08-19T10:29:31;35.30;64.00
54614;DHT22;40514;52.758;6.360;2022-08-19T10:31:57;35.40;62.10
54614;DHT22;40514;52.758;6.360;2022-08-19T10:34:24;35.50;60.10
54614;DHT22;40514;52.758;6.360;2022-08-19T10:36:49;35.70;59.80
54614;DHT22;40514;52.758;6.360;2022-08-19T10:39:15;35.80;59.50
54614;DHT22;40514;52.758;6.360;2022-08-19T10:41:41;36.00;59.20
54614;DHT22;40514;52.758;6.360;2022-08-19T10:44:11;36.20;59.00
54614;DHT22;40514;52.758;6.360;2022-08-19T10:46:42;36.40;58.80
54614;DHT22;40514;52.758;6.360;2022-08-19T10:49:10;36.50;58.20
54614;DHT22;40514;52.758;6.360;2022-08-19T10:51:37;36.60;58.30
54614;DHT22;40514;52.758;6.360;2022-08-19T10:54:22;36.70;57.60
54614;DHT22;40514;52.758;6.360;2022-08-19T10:56:48;37.10;57.40
54614;DHT22;40514;52.758;6.360;2022-08-19T10:59:22;37.10;55.80
54614;DHT22;40514;52.758;6.360;2022-08-19T11:01:48;37.10;55.30
54614;DHT22;40514;52.758;6.360;2022-08-19T11:04:15;37.30;55.20
54614;DHT22;40514;52.758;6.360;2022-08-19T11:06:43;37.40;55.00
54614;DHT22;40514;52.758;6.360;2022-08-19T11:09:11;37.50;54.30
54614;DHT22;40514;52.758;6.360;2022-08-19T11:11:37;37.30;53.20
54614;DHT22;40514;52.758;6.360;2022-08-19T11:14:10;36.70;53.00
54614;DHT22;40514;52.758;6.360;2022-08-19T11:16:37;35.80;52.80
54614;DHT22;40514;52.758;6.360;2022-08-19T11:19:06;35.10;54.70
54614;DHT22;40514;52.758;6.360;2022-08-19T11:21:38;34.50;56.00
54614;DHT22;40514;52.758;6.360;2022-08-19T11:24:08;33.90;56.80
54614;DHT22;40514;52.758;6.360;2022-08-19T11:26:35;33.50;57.60
54614;DHT22;40514;52.758;6.360;2022-08-19T11:29:02;33.10;58.00
54614;DHT22;40514;52.758;6.360;2022-08-19T11:31:33;32.80;58.60
54614;DHT22;40514;52.758;6.360;2022-08-19T11:34:02;32.50;58.60
54614;DHT22;40514;52.758;6.360;2022-08-19T11:36:28;32.20;59.10
54614;DHT22;40514;52.758;6.360;2022-08-19T11:38:54;32.00;59.50
54614;DHT22;40514;52.758;6.360;2022-08-19T11:41:22;31.80;59.80
54614;DHT22;40514;52.758;6.360;2022-08-19T11:43:49;31.70;60.40
54614;DHT22;40514;52.758;6.360;2022-08-19T11:46:17;31.50;60.80
54614;DHT22;40514;52.758;6.360;2022-08-19T11:48:43;31.30;62.10
54614;DHT22;40514;52.758;6.360;2022-08-19T11:51:14;31.20;62.30
54614;DHT22;40514;52.758;6.360;2022-08-19T11:53:40;31.10;62.40
54614;DHT22;40514;52.758;6.360;2022-08-19T11:56:08;31.00;62.80
54614;DHT22;40514;52.758;6.360;2022-08-19T11:58:34;30.90;63.10
54614;DHT22;40514;52.758;6.360;2022-08-19T12:01:00;30.90;63.40
54614;DHT22;40514;52.758;6.360;2022-08-19T12:03:26;30.80;63.80
54614;DHT22;40514;52.758;6.360;2022-08-19T12:05:53;30.70;63.10
54614;DHT22;40514;52.758;6.360;2022-08-19T12:08:19;30.60;62.90
54614;DHT22;40514;52.758;6.360;2022-08-19T12:10:45;30.40;63.20
54614;DHT22;40514;52.758;6.360;2022-08-19T12:13:12;30.40;62.90
54614;DHT22;40514;52.758;6.360;2022-08-19T12:15:41;30.30;62.70
54614;DHT22;40514;52.758;6.360;2022-08-19T12:18:08;30.20;63.00
54614;DHT22;40514;52.758;6.360;2022-08-19T12:20:38;30.10;63.70
54614;DHT22;40514;52.758;6.360;2022-08-19T12:23:06;30.10;63.80
54614;DHT22;40514;52.758;6.360;2022-08-19T12:25:32;30.20;63.90
54614;DHT22;40514;52.758;6.360;2022-08-19T12:27:58;30.20;63.80
54614;DHT22;40514;52.758;6.360;2022-08-19T12:30:24;30.20;63.90
54614;DHT22;40514;52.758;6.360;2022-08-19T12:32:50;30.10;63.90
54614;DHT22;40514;52.758;6.360;2022-08-19T12:35:17;30.20;64.70
54614;DHT22;40514;52.758;6.360;2022-08-19T12:37:46;30.10;64.50
54614;DHT22;40514;52.758;6.360;2022-08-19T12:40:14;30.00;64.70
54614;DHT22;40514;52.758;6.360;2022-08-19T12:42:39;29.90;65.40
54614;DHT22;40514;52.758;6.360;2022-08-19T12:45:08;29.80;65.80
54614;DHT22;40514;52.758;6.360;2022-08-19T12:47:34;29.80;66.10
54614;DHT22;40514;52.758;6.360;2022-08-19T12:50:00;29.80;66.50
54614;DHT22;40514;52.758;6.360;2022-08-19T12:52:25;29.80;66.00
54614;DHT22;40514;52.758;6.360;2022-08-19T12:54:54;29.70;64.30
54614;DHT22;40514;52.758;6.360;2022-08-19T12:57:20;29.70;64.00
54614;DHT22;40514;52.758;6.360;2022-08-19T12:59:45;29.70;64.70
54614;DHT22;40514;52.758;6.360;2022-08-19T13:02:11;29.70;65.50
54614;DHT22;40514;52.758;6.360;2022-08-19T13:04:36;29.70;66.50
54614;DHT22;40514;52.758;6.360;2022-08-19T13:07:06;29.70;66.70
54614;DHT22;40514;52.758;6.360;2022-08-19T13:09:32;29.70;66.90
54614;DHT22;40514;52.758;6.360;2022-08-19T13:11:58;29.50;65.90
54614;DHT22;40514;52.758;6.360;2022-08-19T13:14:23;29.50;66.20
54614;DHT22;40514;52.758;6.360;2022-08-19T13:16:49;29.50;66.70
54614;DHT22;40514;52.758;6.360;2022-08-19T13:19:14;29.50;66.80
54614;DHT22;40514;52.758;6.360;2022-08-19T13:21:40;29.50;67.00
54614;DHT22;40514;52.758;6.360;2022-08-19T13:24:06;29.60;67.60
54614;DHT22;40514;52.758;6.360;2022-08-19T13:26:31;29.60;67.00
54614;DHT22;40514;52.758;6.360;2022-08-19T13:28:57;29.60;65.50
54614;DHT22;40514;52.758;6.360;2022-08-19T13:31:41;29.60;65.40
54614;DHT22;40514;52.758;6.360;2022-08-19T13:34:32;29.60;65.90
54614;DHT22;40514;52.758;6.360;2022-08-19T13:36:59;29.60;66.70
54614;DHT22;40514;52.758;6.360;2022-08-19T13:39:28;29.50;66.90
54614;DHT22;40514;52.758;6.360;2022-08-19T13:41:54;29.60;67.50
54614;DHT22;40514;52.758;6.360;2022-08-19T13:44:19;29.50;68.00
54614;DHT22;40514;52.758;6.360;2022-08-19T13:46:46;29.40;68.30
54614;DHT22;40514;52.758;6.360;2022-08-19T13:49:14;29.40;69.30
54614;DHT22;40514;52.758;6.360;2022-08-19T13:51:41;29.40;69.70
54614;DHT22;40514;52.758;6.360;2022-08-19T13:54:08;29.40;70.10
54614;DHT22;40514;52.758;6.360;2022-08-19T13:56:35;29.50;70.30
54614;DHT22;40514;52.758;6.360;2022-08-19T13:59:04;29.40;70.80
54614;DHT22;40514;52.758;6.360;2022-08-19T14:01:30;29.50;70.80
54614;DHT22;40514;52.758;6.360;2022-08-19T14:03:56;29.40;70.80
54614;DHT22;40514;52.758;6.360;2022-08-19T14:06:21;29.30;71.30
54614;DHT22;40514;52.758;6.360;2022-08-19T14:08:47;29.20;71.70
54614;DHT22;40514;52.758;6.360;2022-08-19T14:11:13;29.10;72.70
54614;DHT22;40514;52.758;6.360;2022-08-19T14:13:39;29.00;73.00
54614;DHT22;40514;52.758;6.360;2022-08-19T14:16:10;28.90;73.70
54614;DHT22;40514;52.758;6.360;2022-08-19T14:18:37;28.80;74.10
54614;DHT22;40514;52.758;6.360;2022-08-19T14:21:03;28.80;74.70
54614;DHT22;40514;52.758;6.360;2022-08-19T14:23:30;28.80;75.30
54614;DHT22;40514;52.758;6.360;2022-08-19T14:26:04;29.00;76.30
54614;DHT22;40514;52.758;6.360;2022-08-19T14:28:30;29.10;76.10
54614;DHT22;40514;52.758;6.360;2022-08-19T14:30:56;29.10;75.70
54614;DHT22;40514;52.758;6.360;2022-08-19T14:33:21;29.00;75.30
54614;DHT22;40514;52.758;6.360;2022-08-19T14:35:47;28.90;75.20
54614;DHT22;40514;52.758;6.360;2022-08-19T14:38:17;28.80;75.30
54614;DHT22;40514;52.758;6.360;2022-08-19T14:40:43;28.80;75.70
54614;DHT22;40514;52.758;6.360;2022-08-19T14:43:09;28.60;76.50
54614;DHT22;40514;52.758;6.360;2022-08-19T14:45:37;28.60;77.30
54614;DHT22;40514;52.758;6.360;2022-08-19T14:48:07;28.50;77.50
54614;DHT22;40514;52.758;6.360;2022-08-19T14:50:34;28.50;78.00
54614;DHT22;40514;52.758;6.360;2022-08-19T14:53:06;28.40;78.70
54614;DHT22;40514;52.758;6.360;2022-08-19T14:55:32;28.30;79.20
54614;DHT22;40514;52.758;6.360;2022-08-19T14:57:58;28.10;80.50
54614;DHT22;40514;52.758;6.360;2022-08-19T15:00:24;28.00;80.70
54614;DHT22;40514;52.758;6.360;2022-08-19T15:02:50;27.90;81.60
54614;DHT22;40514;52.758;6.360;2022-08-19T15:05:16;27.90;82.30
54614;DHT22;40514;52.758;6.360;2022-08-19T15:07:42;27.90;82.60
54614;DHT22;40514;52.758;6.360;2022-08-19T15:10:09;27.80;83.20
54614;DHT22;40514;52.758;6.360;2022-08-19T15:12:36;27.70;83.50
54614;DHT22;40514;52.758;6.360;2022-08-19T15:15:02;27.70;84.20
54614;DHT22;40514;52.758;6.360;2022-08-19T15:17:28;27.60;84.60
54614;DHT22;40514;52.758;6.360;2022-08-19T15:19:55;27.50;85.00
54614;DHT22;40514;52.758;6.360;2022-08-19T15:22:21;27.40;85.20
54614;DHT22;40514;52.758;6.360;2022-08-19T15:24:47;27.40;85.80
54614;DHT22;40514;52.758;6.360;2022-08-19T15:27:13;27.40;86.60
54614;DHT22;40514;52.758;6.360;2022-08-19T15:29:38;27.30;87.50
54614;DHT22;40514;52.758;6.360;2022-08-19T15:32:06;26.90;88.80
54614;DHT22;40514;52.758;6.360;2022-08-19T15:34:33;27.20;88.80
54614;DHT22;40514;52.758;6.360;2022-08-19T15:36:59;27.20;89.30
54614;DHT22;40514;52.758;6.360;2022-08-19T15:39:25;27.20;90.20
54614;DHT22;40514;52.758;6.360;2022-08-19T15:41:50;27.20;90.70
54614;DHT22;40514;52.758;6.360;2022-08-19T15:44:16;27.20;90.80
54614;DHT22;40514;52.758;6.360;2022-08-19T15:46:44;27.10;91.50
54614;DHT22;40514;52.758;6.360;2022-08-19T15:49:11;27.10;91.20
54614;DHT22;40514;52.758;6.360;2022-08-19T15:51:39;27.00;91.40
54614;DHT22;40514;52.758;6.360;2022-08-19T15:54:08;27.00;91.60
54614;DHT22;40514;52.758;6.360;2022-08-19T15:56:34;27.00;91.70
54614;DHT22;40514;52.758;6.360;2022-08-19T15:59:34;26.90;91.60
54614;DHT22;40514;52.758;6.360;2022-08-19T16:02:19;26.90;91.60
54614;DHT22;40514;52.758;6.360;2022-08-19T16:05:07;26.90;91.90
54614;DHT22;40514;52.758;6.360;2022-08-19T16:07:52;26.90;91.90
54614;DHT22;40514;52.758;6.360;2022-08-19T16:10:17;26.90;91.90
54614;DHT22;40514;52.758;6.360;2022-08-19T16:12:43;26.90;92.00
54614;DHT22;40514;52.758;6.360;2022-08-19T16:15:09;26.90;92.20
54614;DHT22;40514;52.758;6.360;2022-08-19T16:17:35;26.80;92.30